Xin Guang Hua — VROL9 — position and weather

sailwx.info

Track history (hours):
 
Tides and Currents Weather Stations Pressure Air Temp Water Temp Dewpoint Dewpoint Depression Visibility Wind Speed Wind Dir Waves Ship Positions

Xin Guang Hua

Last reported at 2020-Mar-04 04:20 UTC. Time now 2020-Apr-02 19:02 UTC.
Position N 32°07' W 120°53'.
Warning: this ship's position is 29 days out of date.

Length 255 m; draft 9.3 m.

Type: Cargo ship. MMSI: 477252400.

Date/timePositionNaut miles runAvg speedWind from/ knotsBaromVisibWave heightAir tempDewpointWater temp
2020-Mar-04 04:20N 32°07' W 120°53'6 7.0
2020-Mar-04 03:30N 32°08' W 120°46'3 6.6
2020-Mar-04 02:58N 32°08' W 120°42'13 6.6
2020-Mar-04 01:00N 32°10' W 120°27'13 6.5
2020-Mar-03 23:00N 32°12' W 120°12'7 6.9
2020-Mar-03 22:00N 32°13' W 120°03'26 7.5
2020-Mar-03 18:30N 32°17' W 119°33'4 8.7
2020-Mar-03 18:00N 32°17' W 119°28'13 8.6
2020-Mar-03 16:30N 32°19' W 119°12'25 8.4
2020-Mar-03 13:30N 32°22' W 118°43'14 6.9
2020-Mar-03 11:30N 32°22' W 118°26'5 4.6
2020-Mar-03 10:30N 32°22' W 118°21'5 4.8
2020-Mar-03 09:30N 32°23' W 118°15'5 4.8
2020-Mar-03 08:30N 32°25' W 118°10'14 5.4
2020-Mar-03 06:00N 32°37' W 118°05'15 7.7
2020-Mar-03 04:00N 32°53' W 118°05'7 7.4
2020-Mar-03 03:00N 33°00' W 118°06'4 7.5
2020-Mar-03 02:30N 33°04' W 118°06'7 7.2
2020-Mar-03 01:30N 33°11' W 118°06'4 7.4
2020-Mar-03 01:00N 33°15' W 118°06'8 8.3
2020-Mar-03 00:00N 33°23' W 118°08'4 8.0
2020-Mar-02 23:30N 33°27' W 118°09'11 7.3
2020-Mar-02 22:00N 33°37' W 118°13'7 1.3
2020-Mar-02 16:29N 33°44' W 118°09'0 0.0
2020-Mar-02 14:59N 33°44' W 118°09'0 0.0
2020-Mar-02 13:59N 33°44' W 118°09'0 0.0
2020-Mar-02 11:59N 33°44' W 118°09'0 0.0
2020-Mar-02 10:29N 33°44' W 118°09'0 0.0
2020-Mar-02 09:29N 33°44' W 118°09'0 0.0
2020-Mar-02 08:29N 33°44' W 118°09'0 0.0
2020-Mar-02 03:29N 33°44' W 118°09'0 0.0
2020-Mar-02 01:59N 33°44' W 118°09'0 0.1
2020-Mar-02 01:29N 33°44' W 118°09'0 0.1
2020-Mar-02 00:29N 33°44' W 118°09'0 0.1
2020-Mar-01 23:59N 33°44' W 118°09'0 0.0
2020-Mar-01 18:29N 33°44' W 118°09'0 0.1
2020-Mar-01 17:59N 33°44' W 118°09'0 0.0
2020-Mar-01 14:29N 33°44' W 118°09'0 0.0
2020-Mar-01 12:53N 33°44' W 118°09'0 0.0
2020-Mar-01 11:59N 33°44' W 118°09'0 0.0
2020-Mar-01 09:59N 33°44' W 118°09'0 0.0
2020-Mar-01 06:59N 33°44' W 118°09'0 0.0
2020-Mar-01 06:29N 33°44' W 118°09'0 0.0
2020-Mar-01 04:29N 33°44' W 118°09'0 0.0
2020-Mar-01 03:29N 33°44' W 118°09'0 0.0
2020-Mar-01 02:29N 33°44' W 118°09'0 0.0
2020-Mar-01 01:29N 33°44' W 118°09'0 0.0
2020-Feb-29 22:29N 33°44' W 118°09'0 0.0
2020-Feb-29 21:59N 33°44' W 118°09'0 0.0
2020-Feb-29 20:29N 33°44' W 118°09'0 0.0
2020-Feb-29 17:29N 33°44' W 118°09'0 0.0
2020-Feb-29 16:59N 33°44' W 118°09'0 0.0
2020-Feb-29 14:59N 33°44' W 118°09'0 0.0
2020-Feb-29 14:29N 33°44' W 118°09'0 0.0
2020-Feb-29 13:59N 33°44' W 118°09'0 0.0
2020-Feb-29 13:29N 33°44' W 118°09'0 0.0
2020-Feb-29 12:59N 33°44' W 118°09'0 0.0
2020-Feb-29 11:59N 33°44' W 118°09'0 0.0
2020-Feb-29 10:59N 33°44' W 118°09'0 0.0
2020-Feb-29 09:59N 33°44' W 118°09'0 0.0
2020-Feb-29 08:59N 33°44' W 118°09'0 0.0
2020-Feb-29 08:29N 33°44' W 118°09'0 0.0
2020-Feb-29 06:29N 33°44' W 118°09'0 0.0
2020-Feb-29 05:59N 33°44' W 118°09'0 0.0
2020-Feb-29 02:29N 33°44' W 118°09'0 0.0
2020-Feb-29 01:29N 33°44' W 118°09'0 0.0
2020-Feb-28 20:29N 33°44' W 118°09'0 0.0
2020-Feb-28 19:59N 33°44' W 118°09'0 0.0
2020-Feb-28 19:29N 33°44' W 118°09'0 0.0
2020-Feb-28 18:59N 33°44' W 118°09'0 0.0
2020-Feb-28 17:29N 33°44' W 118°09'0 0.0
2020-Feb-28 16:59N 33°44' W 118°09'0 0.0
2020-Feb-28 13:29N 33°44' W 118°09'0 0.0
2020-Feb-28 12:56N 33°44' W 118°09'0 0.0
2020-Feb-28 11:59N 33°44' W 118°09'0 0.0
2020-Feb-28 08:59N 33°44' W 118°09'0 0.0
2020-Feb-28 07:59N 33°44' W 118°09'0 0.0
2020-Feb-28 06:59N 33°44' W 118°09'0 0.0
2020-Feb-28 04:29N 33°44' W 118°09'0 0.0
2020-Feb-28 03:29N 33°44' W 118°09'0 0.0
2020-Feb-28 02:59N 33°44' W 118°09'0 0.0
2020-Feb-28 02:29N 33°44' W 118°09'0 0.0
2020-Feb-28 01:59N 33°44' W 118°09'0 0.0
2020-Feb-27 22:29N 33°44' W 118°09'0 0.0
2020-Feb-27 21:29N 33°44' W 118°09'0 0.0
2020-Feb-27 18:56N 33°44' W 118°09'0 0.0
2020-Feb-27 16:29N 33°44' W 118°09'0 0.0
2020-Feb-27 13:26N 33°44' W 118°09'0 0.0
2020-Feb-27 12:59N 33°44' W 118°09'0 0.0
2020-Feb-27 12:29N 33°44' W 118°09'0 0.0
2020-Feb-27 10:59N 33°44' W 118°09'0 0.0
2020-Feb-27 10:29N 33°44' W 118°09'0 0.0
2020-Feb-27 09:59N 33°44' W 118°09'0 0.0
2020-Feb-27 09:29N 33°44' W 118°09'0 0.0
2020-Feb-27 07:29N 33°44' W 118°09'0 0.0
2020-Feb-27 05:59N 33°44' W 118°09'0 0.0
2020-Feb-27 04:53N 33°44' W 118°09'0 0.0
2020-Feb-27 04:29N 33°44' W 118°09'0 0.0
2020-Feb-27 03:59N 33°44' W 118°09'0 0.0
2020-Feb-27 03:29N 33°44' W 118°09'0 0.0
2020-Feb-27 01:59N 33°44' W 118°09'0 0.0
2020-Feb-26 22:59N 33°44' W 118°09'0 0.0
2020-Feb-26 20:59N 33°44' W 118°09'0 0.0
2020-Feb-26 19:59N 33°44' W 118°09'0 0.0
2020-Feb-26 17:29N 33°44' W 118°09'0 0.0
2020-Feb-26 16:29N 33°44' W 118°09'0 0.0
2020-Feb-26 15:59N 33°44' W 118°09'0 0.0
2020-Feb-26 15:26N 33°44' W 118°09'0 0.0
2020-Feb-26 13:59N 33°44' W 118°09'0 0.1
2020-Feb-26 13:29N 33°44' W 118°09'0 0.0
2020-Feb-26 11:59N 33°44' W 118°09'0 0.0
2020-Feb-26 11:29N 33°44' W 118°09'0 0.0
2020-Feb-26 10:29N 33°44' W 118°09'0 0.0
2020-Feb-26 07:29N 33°44' W 118°09'0 0.0
2020-Feb-26 06:59N 33°44' W 118°09'0 0.0
2020-Feb-26 06:29N 33°44' W 118°09'0 0.1
2020-Feb-26 05:29N 33°44' W 118°09'0 0.0
2020-Feb-26 02:29N 33°44' W 118°09'0 0.0
2020-Feb-25 23:59N 33°44' W 118°09'0 0.0
2020-Feb-25 23:29N 33°44' W 118°09'0 0.0
2020-Feb-25 22:29N 33°44' W 118°09'0 0.0
2020-Feb-25 21:29N 33°44' W 118°09'0 0.0
2020-Feb-25 20:29N 33°44' W 118°09'0 0.0
2020-Feb-25 19:59N 33°44' W 118°09'0 0.0
2020-Feb-25 15:29N 33°44' W 118°09'0 0.0
2020-Feb-25 11:29N 33°44' W 118°09'0 0.0
2020-Feb-25 10:59N 33°44' W 118°09'0 0.0
2020-Feb-25 09:29N 33°44' W 118°09'0 0.0
2020-Feb-25 08:29N 33°44' W 118°09'0 0.0
2020-Feb-25 07:29N 33°44' W 118°09'0 0.0
2020-Feb-25 06:59N 33°44' W 118°09'0 0.0
2020-Feb-25 03:59N 33°44' W 118°09'0 0.0
2020-Feb-25 03:29N 33°44' W 118°09'0 0.0
2020-Feb-25 02:59N 33°44' W 118°09'0 0.0
2020-Feb-25 00:59N 33°44' W 118°09'0 0.0
2020-Feb-24 20:59N 33°44' W 118°09'0 0.0
2020-Feb-24 19:59N 33°44' W 118°09'0 0.0
2020-Feb-24 18:59N 33°44' W 118°09'0 0.0
2020-Feb-24 15:59N 33°44' W 118°09'0 0.0
2020-Feb-24 14:59N 33°44' W 118°09'0 0.0
2020-Feb-24 14:29N 33°44' W 118°09'0 0.0
2020-Feb-24 11:59N 33°44' W 118°09'0 0.0
2020-Feb-24 11:29N 33°44' W 118°09'0 0.0
2020-Feb-24 08:29N 33°44' W 118°09'0 0.0
2020-Feb-24 03:59N 33°44' W 118°09'3 2.3
2020-Feb-24 02:31N 33°44' W 118°13'0 0.1
2020-Feb-24 00:31N 33°45' W 118°13'0 0.0
2020-Feb-23 22:31N 33°45' W 118°13'0 0.0
2020-Feb-23 18:59N 33°45' W 118°13'0 0.0
2020-Feb-23 18:29N 33°45' W 118°13'0 0.0
2020-Feb-23 16:29N 33°45' W 118°13'0 0.0
2020-Feb-23 15:59N 33°45' W 118°13'0 0.0
2020-Feb-23 08:00N 33°45' W 118°13'0 0.0
2020-Feb-23 07:30N 33°45' W 118°13'0 0.0
2020-Feb-23 06:00N 33°45' W 118°13'  
Track history (hours):
 
Tides and Currents Weather Stations Pressure Air Temp Water Temp Dewpoint Dewpoint Depression Visibility Wind Speed Wind Dir Waves Ship Positions

Xin Guang Hua

Last reported at 2020-Mar-04 04:20 UTC. Time now 2020-Apr-02 19:02 UTC.
Position N 32°07' W 120°53'.
Warning: this ship's position is 29 days out of date.

Length 255 m; draft 9.3 m.

Type: Cargo ship. MMSI: 477252400.

Date/timePositionNaut miles runAvg speedWind from/ knotsBaromVisibWave heightAir tempDewpointWater temp
2020-Mar-04 04:20N 32°07' W 120°53'6 7.0
2020-Mar-04 03:30N 32°08' W 120°46'3 6.6
2020-Mar-04 02:58N 32°08' W 120°42'13 6.6
2020-Mar-04 01:00N 32°10' W 120°27'13 6.5
2020-Mar-03 23:00N 32°12' W 120°12'7 6.9
2020-Mar-03 22:00N 32°13' W 120°03'26 7.5
2020-Mar-03 18:30N 32°17' W 119°33'4 8.7
2020-Mar-03 18:00N 32°17' W 119°28'13 8.6
2020-Mar-03 16:30N 32°19' W 119°12'25 8.4
2020-Mar-03 13:30N 32°22' W 118°43'14 6.9
2020-Mar-03 11:30N 32°22' W 118°26'5 4.6
2020-Mar-03 10:30N 32°22' W 118°21'5 4.8
2020-Mar-03 09:30N 32°23' W 118°15'5 4.8
2020-Mar-03 08:30N 32°25' W 118°10'14 5.4
2020-Mar-03 06:00N 32°37' W 118°05'15 7.7
2020-Mar-03 04:00N 32°53' W 118°05'7 7.4
2020-Mar-03 03:00N 33°00' W 118°06'4 7.5
2020-Mar-03 02:30N 33°04' W 118°06'7 7.2
2020-Mar-03 01:30N 33°11' W 118°06'4 7.4
2020-Mar-03 01:00N 33°15' W 118°06'8 8.3
2020-Mar-03 00:00N 33°23' W 118°08'4 8.0
2020-Mar-02 23:30N 33°27' W 118°09'11 7.3
2020-Mar-02 22:00N 33°37' W 118°13'7 1.3
2020-Mar-02 16:29N 33°44' W 118°09'0 0.0
2020-Mar-02 14:59N 33°44' W 118°09'0 0.0
2020-Mar-02 13:59N 33°44' W 118°09'0 0.0
2020-Mar-02 11:59N 33°44' W 118°09'0 0.0
2020-Mar-02 10:29N 33°44' W 118°09'0 0.0
2020-Mar-02 09:29N 33°44' W 118°09'0 0.0
2020-Mar-02 08:29N 33°44' W 118°09'0 0.0
2020-Mar-02 03:29N 33°44' W 118°09'0 0.0
2020-Mar-02 01:59N 33°44' W 118°09'0 0.1
2020-Mar-02 01:29N 33°44' W 118°09'0 0.1
2020-Mar-02 00:29N 33°44' W 118°09'0 0.1
2020-Mar-01 23:59N 33°44' W 118°09'0 0.0
2020-Mar-01 18:29N 33°44' W 118°09'0 0.1
2020-Mar-01 17:59N 33°44' W 118°09'0 0.0
2020-Mar-01 14:29N 33°44' W 118°09'0 0.0
2020-Mar-01 12:53N 33°44' W 118°09'0 0.0
2020-Mar-01 11:59N 33°44' W 118°09'0 0.0
2020-Mar-01 09:59N 33°44' W 118°09'0 0.0
2020-Mar-01 06:59N 33°44' W 118°09'0 0.0
2020-Mar-01 06:29N 33°44' W 118°09'0 0.0
2020-Mar-01 04:29N 33°44' W 118°09'0 0.0
2020-Mar-01 03:29N 33°44' W 118°09'0 0.0
2020-Mar-01 02:29N 33°44' W 118°09'0 0.0
2020-Mar-01 01:29N 33°44' W 118°09'0 0.0
2020-Feb-29 22:29N 33°44' W 118°09'0 0.0
2020-Feb-29 21:59N 33°44' W 118°09'0 0.0
2020-Feb-29 20:29N 33°44' W 118°09'0 0.0
2020-Feb-29 17:29N 33°44' W 118°09'0 0.0
2020-Feb-29 16:59N 33°44' W 118°09'0 0.0
2020-Feb-29 14:59N 33°44' W 118°09'0 0.0
2020-Feb-29 14:29N 33°44' W 118°09'0 0.0
2020-Feb-29 13:59N 33°44' W 118°09'0 0.0
2020-Feb-29 13:29N 33°44' W 118°09'0 0.0
2020-Feb-29 12:59N 33°44' W 118°09'0 0.0
2020-Feb-29 11:59N 33°44' W 118°09'0 0.0
2020-Feb-29 10:59N 33°44' W 118°09'0 0.0
2020-Feb-29 09:59N 33°44' W 118°09'0 0.0
2020-Feb-29 08:59N 33°44' W 118°09'0 0.0
2020-Feb-29 08:29N 33°44' W 118°09'0 0.0
2020-Feb-29 06:29N 33°44' W 118°09'0 0.0
2020-Feb-29 05:59N 33°44' W 118°09'0 0.0
2020-Feb-29 02:29N 33°44' W 118°09'0 0.0
2020-Feb-29 01:29N 33°44' W 118°09'0 0.0
2020-Feb-28 20:29N 33°44' W 118°09'0 0.0
2020-Feb-28 19:59N 33°44' W 118°09'0 0.0
2020-Feb-28 19:29N 33°44' W 118°09'0 0.0
2020-Feb-28 18:59N 33°44' W 118°09'0 0.0
2020-Feb-28 17:29N 33°44' W 118°09'0 0.0
2020-Feb-28 16:59N 33°44' W 118°09'0 0.0
2020-Feb-28 13:29N 33°44' W 118°09'0 0.0
2020-Feb-28 12:56N 33°44' W 118°09'0 0.0
2020-Feb-28 11:59N 33°44' W 118°09'0 0.0
2020-Feb-28 08:59N 33°44' W 118°09'0 0.0
2020-Feb-28 07:59N 33°44' W 118°09'0 0.0
2020-Feb-28 06:59N 33°44' W 118°09'0 0.0
2020-Feb-28 04:29N 33°44' W 118°09'0 0.0
2020-Feb-28 03:29N 33°44' W 118°09'0 0.0
2020-Feb-28 02:59N 33°44' W 118°09'0 0.0
2020-Feb-28 02:29N 33°44' W 118°09'0 0.0
2020-Feb-28 01:59N 33°44' W 118°09'0 0.0
2020-Feb-27 22:29N 33°44' W 118°09'0 0.0
2020-Feb-27 21:29N 33°44' W 118°09'0 0.0
2020-Feb-27 18:56N 33°44' W 118°09'0 0.0
2020-Feb-27 16:29N 33°44' W 118°09'0 0.0
2020-Feb-27 13:26N 33°44' W 118°09'0 0.0
2020-Feb-27 12:59N 33°44' W 118°09'0 0.0
2020-Feb-27 12:29N 33°44' W 118°09'0 0.0
2020-Feb-27 10:59N 33°44' W 118°09'0 0.0
2020-Feb-27 10:29N 33°44' W 118°09'0 0.0
2020-Feb-27 09:59N 33°44' W 118°09'0 0.0
2020-Feb-27 09:29N 33°44' W 118°09'0 0.0
2020-Feb-27 07:29N 33°44' W 118°09'0 0.0
2020-Feb-27 05:59N 33°44' W 118°09'0 0.0
2020-Feb-27 04:53N 33°44' W 118°09'0 0.0
2020-Feb-27 04:29N 33°44' W 118°09'0 0.0
2020-Feb-27 03:59N 33°44' W 118°09'0 0.0
2020-Feb-27 03:29N 33°44' W 118°09'0 0.0
2020-Feb-27 01:59N 33°44' W 118°09'0 0.0
2020-Feb-26 22:59N 33°44' W 118°09'0 0.0
2020-Feb-26 20:59N 33°44' W 118°09'0 0.0
2020-Feb-26 19:59N 33°44' W 118°09'0 0.0
2020-Feb-26 17:29N 33°44' W 118°09'0 0.0
2020-Feb-26 16:29N 33°44' W 118°09'0 0.0
2020-Feb-26 15:59N 33°44' W 118°09'0 0.0
2020-Feb-26 15:26N 33°44' W 118°09'0 0.0
2020-Feb-26 13:59N 33°44' W 118°09'0 0.1
2020-Feb-26 13:29N 33°44' W 118°09'0 0.0
2020-Feb-26 11:59N 33°44' W 118°09'0 0.0
2020-Feb-26 11:29N 33°44' W 118°09'0 0.0
2020-Feb-26 10:29N 33°44' W 118°09'0 0.0
2020-Feb-26 07:29N 33°44' W 118°09'0 0.0
2020-Feb-26 06:59N 33°44' W 118°09'0 0.0
2020-Feb-26 06:29N 33°44' W 118°09'0 0.1
2020-Feb-26 05:29N 33°44' W 118°09'0 0.0
2020-Feb-26 02:29N 33°44' W 118°09'0 0.0
2020-Feb-25 23:59N 33°44' W 118°09'0 0.0
2020-Feb-25 23:29N 33°44' W 118°09'0 0.0
2020-Feb-25 22:29N 33°44' W 118°09'0 0.0
2020-Feb-25 21:29N 33°44' W 118°09'0 0.0
2020-Feb-25 20:29N 33°44' W 118°09'0 0.0
2020-Feb-25 19:59N 33°44' W 118°09'0 0.0
2020-Feb-25 15:29N 33°44' W 118°09'0 0.0
2020-Feb-25 11:29N 33°44' W 118°09'0 0.0
2020-Feb-25 10:59N 33°44' W 118°09'0 0.0
2020-Feb-25 09:29N 33°44' W 118°09'0 0.0
2020-Feb-25 08:29N 33°44' W 118°09'0 0.0
2020-Feb-25 07:29N 33°44' W 118°09'0 0.0
2020-Feb-25 06:59N 33°44' W 118°09'0 0.0
2020-Feb-25 03:59N 33°44' W 118°09'0 0.0
2020-Feb-25 03:29N 33°44' W 118°09'0 0.0
2020-Feb-25 02:59N 33°44' W 118°09'0 0.0
2020-Feb-25 00:59N 33°44' W 118°09'0 0.0
2020-Feb-24 20:59N 33°44' W 118°09'0 0.0
2020-Feb-24 19:59N 33°44' W 118°09'0 0.0
2020-Feb-24 18:59N 33°44' W 118°09'0 0.0
2020-Feb-24 15:59N 33°44' W 118°09'0 0.0
2020-Feb-24 14:59N 33°44' W 118°09'0 0.0
2020-Feb-24 14:29N 33°44' W 118°09'0 0.0
2020-Feb-24 11:59N 33°44' W 118°09'0 0.0
2020-Feb-24 11:29N 33°44' W 118°09'0 0.0
2020-Feb-24 08:29N 33°44' W 118°09'0 0.0
2020-Feb-24 03:59N 33°44' W 118°09'3 2.3
2020-Feb-24 02:31N 33°44' W 118°13'0 0.1
2020-Feb-24 00:31N 33°45' W 118°13'0 0.0
2020-Feb-23 22:31N 33°45' W 118°13'0 0.0
2020-Feb-23 18:59N 33°45' W 118°13'0 0.0
2020-Feb-23 18:29N 33°45' W 118°13'0 0.0
2020-Feb-23 16:29N 33°45' W 118°13'0 0.0
2020-Feb-23 15:59N 33°45' W 118°13'0 0.0
2020-Feb-23 08:00N 33°45' W 118°13'0 0.0
2020-Feb-23 07:30N 33°45' W 118°13'0 0.0
2020-Feb-23 06:00N 33°45' W 118°13'  

Dump ship's entire track history